Time;durP1;ratioP1;P1;durP2;ratioP2;P2;SDS_P1;SDS_P2;PMS_P1;PMS_P2;Temp;Humidity;BMP_temperature;BMP_pressure;BME280_temperature;BME280_humidity;BME280_pressure;Samples;Min_cycle;Max_cycle;Signal;HPM_P1;HPM_P2
2024/01/20 00:00:40;;;;;;;8.37;4.30;;;;;;;-0.53;100.00;96832.50;7404649;19;20391;-94
2024/01/20 00:03:27;;;;;;;6.10;4.20;;;;;;;-0.51;100.00;96838.22;7403751;19;20451;-94
2024/01/20 00:06:10;;;;;;;7.27;5.07;;;;;;;-0.42;100.00;96841.31;7404881;19;20860;-95
2024/01/20 00:08:55;;;;;;;9.10;4.27;;;;;;;-0.50;100.00;96850.09;7403401;19;20443;-94
2024/01/20 00:11:41;;;;;;;7.13;3.73;;;;;;;-0.48;100.00;96862.78;7405020;19;20389;-94
2024/01/20 00:14:25;;;;;;;4.90;4.00;;;;;;;-0.39;100.00;96864.06;7404015;19;20871;-90
2024/01/20 00:17:09;;;;;;;4.83;4.23;;;;;;;-0.41;100.00;96856.56;7403325;19;20404;-91
2024/01/20 00:19:52;;;;;;;8.67;4.57;;;;;;;-0.55;100.00;96860.28;7403203;19;20414;-91
2024/01/20 00:22:36;;;;;;;4.27;3.87;;;;;;;-0.64;100.00;96852.03;7402790;19;20404;-90
2024/01/20 00:25:20;;;;;;;5.00;3.93;;;;;;;-0.70;100.00;96849.53;7404179;19;20680;-91
2024/01/20 00:28:04;;;;;;;10.20;5.80;;;;;;;-0.52;100.00;96838.44;7403338;19;20375;-90
2024/01/20 00:30:48;;;;;;;7.57;5.50;;;;;;;-0.42;100.00;96842.09;7403663;19;20379;-91
2024/01/20 00:33:32;;;;;;;7.13;4.70;;;;;;;-0.53;100.00;96850.53;7402002;19;20476;-91
2024/01/20 00:36:15;;;;;;;4.80;4.40;;;;;;;-0.63;100.00;96852.81;7403868;19;20483;-92
2024/01/20 00:38:59;;;;;;;3.97;2.83;;;;;;;-0.57;100.00;96875.19;7403967;19;20384;-92
2024/01/20 00:41:42;;;;;;;5.83;3.97;;;;;;;-0.71;100.00;96865.97;7403384;19;20384;-91
2024/01/20 00:44:26;;;;;;;5.17;4.57;;;;;;;-0.60;100.00;96894.41;7403683;19;20357;-91
2024/01/20 00:47:09;;;;;;;5.30;4.03;;;;;;;-0.71;100.00;96889.16;7403569;19;20445;-92
2024/01/20 00:49:52;;;;;;;8.03;3.90;;;;;;;-0.64;100.00;96893.25;7401715;19;20376;-92
2024/01/20 00:52:36;;;;;;;5.80;3.67;;;;;;;-0.59;100.00;96901.13;7402749;19;20400;-91
2024/01/20 00:55:20;;;;;;;4.37;3.97;;;;;;;-0.66;100.00;96886.75;7403381;19;20429;-91
2024/01/20 00:58:03;;;;;;;4.57;4.17;;;;;;;-0.58;100.00;96892.41;7402968;19;20905;-91
2024/01/20 01:00:47;;;;;;;4.10;3.70;;;;;;;-0.59;100.00;96887.47;7402684;19;20467;-90
2024/01/20 01:03:31;;;;;;;6.73;4.33;;;;;;;-0.65;100.00;96878.81;7401024;19;20426;-92
2024/01/20 01:06:14;;;;;;;7.37;4.50;;;;;;;-0.64;100.00;96882.16;7402552;19;20372;-91
2024/01/20 01:08:58;;;;;;;4.27;3.40;;;;;;;-0.57;100.00;96886.28;7398465;19;20377;-92
2024/01/20 01:11:41;;;;;;;7.40;4.60;;;;;;;-0.55;100.00;96898.94;7402473;19;20384;-91
2024/01/20 01:14:25;;;;;;;4.80;4.23;;;;;;;-0.62;100.00;96896.41;7402416;19;20357;-92
2024/01/20 01:17:08;;;;;;;5.33;4.10;;;;;;;-0.68;100.00;96888.75;7402249;19;20368;-91
2024/01/20 01:19:52;;;;;;;8.20;4.40;;;;;;;-0.66;100.00;96884.16;7401744;19;20417;-91
2024/01/20 01:22:36;;;;;;;5.63;3.03;;;;;;;-0.52;100.00;96901.09;7400701;19;20392;-91
2024/01/20 01:25:22;;;;;;;5.43;3.40;;;;;;;-1.89;100.00;96726.97;7402057;19;20361;-91
2024/01/20 01:28:05;;;;;;;6.60;4.83;;;;;;;-0.68;100.00;96922.25;7401692;19;20365;-92
2024/01/20 01:30:49;;;;;;;5.90;3.67;;;;;;;-0.63;100.00;96920.59;7402017;19;20674;-92
2024/01/20 01:33:33;;;;;;;7.00;3.70;;;;;;;-0.64;100.00;96921.59;7400299;19;20396;-91
2024/01/20 01:36:16;;;;;;;8.80;3.47;;;;;;;-0.86;100.00;96879.19;7401268;19;20849;-92
2024/01/20 01:38:59;;;;;;;5.00;4.37;;;;;;;-0.66;100.00;96905.56;7401957;19;20673;-91
2024/01/20 01:41:43;;;;;;;4.60;4.20;;;;;;;-0.59;100.00;96897.75;7401221;19;20913;-92
2024/01/20 01:44:26;;;;;;;5.10;4.20;;;;;;;-0.61;100.00;96892.81;7401377;19;20422;-92
2024/01/20 01:47:10;;;;;;;5.40;3.77;;;;;;;-0.84;100.00;96861.75;7401640;19;20443;-91
2024/01/20 01:50:24;;;;;;;6.57;4.40;;;;;;;-0.59;100.00;96906.28;7399726;19;20377;-91
2024/01/20 01:53:06;;;;;;;8.27;4.20;;;;;;;-1.34;100.00;96787.09;7400363;19;20416;-92
2024/01/20 01:55:50;;;;;;;7.77;3.77;;;;;;;-0.54;100.00;96903.09;7400750;19;20852;-91
2024/01/20 01:58:34;;;;;;;6.63;5.50;;;;;;;-0.58;100.00;96902.72;7400829;19;20369;-91
2024/01/20 02:01:18;;;;;;;6.20;5.67;;;;;;;-0.60;100.00;96906.50;7400961;19;20369;-91
2024/01/20 02:04:01;;;;;;;6.67;3.93;;;;;;;-0.58;100.00;96907.06;7399131;19;20416;-91
2024/01/20 02:06:45;;;;;;;8.20;5.03;;;;;;;-0.69;100.00;96887.97;7400762;19;20376;-92
2024/01/20 02:09:29;;;;;;;8.83;4.20;;;;;;;-0.65;100.00;96907.16;7399364;19;20369;-93
2024/01/20 02:12:14;;;;;;;9.57;4.00;;;;;;;-0.73;100.00;96907.41;7400675;19;20369;-91
2024/01/20 02:14:59;;;;;;;9.20;4.07;;;;;;;-0.73;100.00;96916.94;7400882;19;20685;-91
2024/01/20 02:17:55;;;;;;;5.40;3.10;;;;;;;-1.19;100.00;96851.91;7400116;19;20365;-92
2024/01/20 02:20:39;;;;;;;8.07;3.40;;;;;;;-1.00;100.00;96893.16;7398267;19;20405;-92
2024/01/20 02:23:23;;;;;;;3.47;2.30;;;;;;;-0.96;100.00;96917.53;7399222;19;20417;-91
2024/01/20 02:26:06;;;;;;;8.83;5.50;;;;;;;-0.80;100.00;96921.38;7400180;19;20364;-91
2024/01/20 02:28:50;;;;;;;5.00;4.40;;;;;;;-0.71;100.00;96925.22;7398906;19;20381;-91
2024/01/20 02:31:34;;;;;;;5.60;4.60;;;;;;;-0.70;100.00;96908.78;7399584;19;20369;-91
2024/01/20 02:34:17;;;;;;;6.80;3.83;;;;;;;-0.75;100.00;96917.13;7398341;19;20420;-92
2024/01/20 02:37:00;;;;;;;5.47;4.93;;;;;;;-0.76;100.00;96920.72;7400138;19;20360;-92
2024/01/20 02:39:44;;;;;;;8.27;4.67;;;;;;;-0.75;100.00;96916.34;7399768;19;20373;-90
2024/01/20 02:42:28;;;;;;;12.37;6.13;;;;;;;-0.69;100.00;96921.47;7399433;19;20442;-91
2024/01/20 02:45:11;;;;;;;5.50;4.70;;;;;;;-0.63;100.00;96925.75;7400589;19;20376;-90
2024/01/20 02:47:55;;;;;;;6.03;4.57;;;;;;;-0.63;100.00;96943.00;7400370;19;20369;-90
2024/01/20 02:50:39;;;;;;;6.20;5.07;;;;;;;-0.68;100.00;96938.50;7400706;19;20364;-90
2024/01/20 02:53:24;;;;;;;5.93;4.87;;;;;;;-0.81;100.00;96930.09;7400024;19;20404;-91
2024/01/20 02:56:08;;;;;;;5.77;4.83;;;;;;;-0.87;100.00;96929.91;7399753;19;20357;-90
2024/01/20 02:58:52;;;;;;;5.47;4.00;;;;;;;-1.41;100.00;96853.28;7399990;19;20368;-91
2024/01/20 03:01:35;;;;;;;6.70;4.30;;;;;;;-0.85;100.00;96922.75;7400154;19;20676;-90
2024/01/20 03:04:19;;;;;;;6.30;4.33;;;;;;;-0.75;100.00;96930.03;7397810;19;20449;-90
2024/01/20 03:07:04;;;;;;;7.37;4.40;;;;;;;-0.80;100.00;96924.72;7399215;19;20356;-92
2024/01/20 03:09:47;;;;;;;5.43;4.90;;;;;;;-0.70;100.00;96929.41;7397345;19;20698;-91
2024/01/20 03:12:31;;;;;;;5.90;4.57;;;;;;;-0.64;100.00;96929.34;7398573;19;20415;-91
2024/01/20 03:15:14;;;;;;;7.03;5.40;;;;;;;-0.63;100.00;96930.13;7398910;19;20379;-90
2024/01/20 03:17:58;;;;;;;5.43;4.40;;;;;;;-0.56;100.00;96921.34;7398929;19;20385;-91
2024/01/20 03:20:41;;;;;;;6.63;3.87;;;;;;;-0.72;100.00;96923.66;7397902;19;20407;-90
2024/01/20 03:23:25;;;;;;;9.83;4.87;;;;;;;-0.98;100.00;96897.09;7397116;19;20880;-90
2024/01/20 03:26:10;;;;;;;9.53;6.57;;;;;;;-0.89;100.00;96918.25;7398470;19;20364;-91
2024/01/20 03:28:53;;;;;;;8.63;4.97;;;;;;;-1.23;100.00;96876.50;7398275;19;20828;-91
2024/01/20 03:31:37;;;;;;;8.17;4.70;;;;;;;-0.93;100.00;96927.41;7398933;19;20685;-91
2024/01/20 03:34:22;;;;;;;10.10;5.27;;;;;;;-0.95;100.00;96935.34;7403590;19;20400;-90
2024/01/20 03:37:06;;;;;;;5.70;4.53;;;;;;;-0.96;100.00;96932.97;7405844;19;20384;-90
2024/01/20 03:39:49;;;;;;;8.63;4.80;;;;;;;-1.06;100.00;96912.84;7405703;19;20380;-91
2024/01/20 03:42:33;;;;;;;5.80;5.30;;;;;;;-0.86;100.00;96931.50;7405000;19;20439;-90
2024/01/20 03:45:16;;;;;;;8.63;4.20;;;;;;;-1.18;100.00;96935.09;7405251;19;20360;-91
2024/01/20 03:48:00;;;;;;;6.40;4.77;;;;;;;-0.96;100.00;96936.34;7405480;19;20369;-91
2024/01/20 03:50:44;;;;;;;5.63;5.10;;;;;;;-1.16;100.00;96910.72;7406098;19;20368;-91
2024/01/20 03:53:28;;;;;;;9.00;4.80;;;;;;;-1.05;100.00;96947.88;7404477;19;20493;-91
2024/01/20 03:56:11;;;;;;;6.90;6.07;;;;;;;-1.25;100.00;96955.72;7404471;19;20371;-90
2024/01/20 03:58:55;;;;;;;6.87;4.90;;;;;;;-1.10;100.00;96958.03;7404924;19;20400;-91
2024/01/20 04:01:39;;;;;;;10.47;4.90;;;;;;;-1.23;100.00;96916.94;7404488;19;20382;-92
2024/01/20 04:04:23;;;;;;;5.77;4.73;;;;;;;-0.87;100.00;96978.88;7402294;19;20776;-90
2024/01/20 04:07:06;;;;;;;7.73;5.07;;;;;;;-0.79;100.00;96982.19;7404876;19;20372;-90
2024/01/20 04:09:50;;;;;;;5.47;4.63;;;;;;;-0.76;100.00;96981.78;7403066;19;20440;-91
2024/01/20 04:12:35;;;;;;;6.47;4.50;;;;;;;-0.79;100.00;96984.78;7404238;19;20412;-91
2024/01/20 04:15:18;;;;;;;11.70;5.43;;;;;;;-0.89;100.00;96991.16;7404819;19;20369;-91
2024/01/20 04:18:02;;;;;;;7.30;4.80;;;;;;;-1.02;100.00;96991.25;7405187;19;20372;-91
2024/01/20 04:20:46;;;;;;;5.60;4.43;;;;;;;-0.94;100.00;96983.28;7402997;19;20425;-91
2024/01/20 04:23:29;;;;;;;6.93;4.70;;;;;;;-0.91;100.00;96990.59;7403175;19;20392;-91
2024/01/20 04:26:13;;;;;;;7.70;5.20;;;;;;;-0.81;100.00;96992.72;7404772;19;20401;-90
2024/01/20 04:28:57;;;;;;;5.23;4.73;;;;;;;-0.85;100.00;96994.91;7403552;19;20380;-91
2024/01/20 04:31:40;;;;;;;8.80;6.00;;;;;;;-1.06;100.00;96981.59;7405603;19;20381;-91
2024/01/20 04:34:23;;;;;;;6.57;4.13;;;;;;;-1.06;100.00;97002.19;7401314;19;20434;-91
2024/01/20 04:37:07;;;;;;;5.70;4.30;;;;;;;-1.17;100.00;97001.84;7403730;19;20365;-93
2024/01/20 04:39:51;;;;;;;6.20;5.00;;;;;;;-1.29;100.00;96990.59;7403316;19;20862;-91
2024/01/20 04:42:34;;;;;;;6.00;5.17;;;;;;;-1.21;100.00;97005.84;7402804;19;20408;-91
2024/01/20 04:45:19;;;;;;;5.20;3.17;;;;;;;-3.30;100.00;96696.19;7402805;19;20372;-92
2024/01/20 04:48:04;;;;;;;4.17;3.67;;;;;;;-1.39;100.00;97002.34;7402975;19;20858;-92
2024/01/20 04:50:47;;;;;;;6.33;5.50;;;;;;;-1.41;100.00;96994.06;7402872;19;20916;-92
2024/01/20 04:53:53;;;;;;;7.07;4.60;;;;;;;-1.46;100.00;96992.91;7401401;19;20896;-92
2024/01/20 04:56:37;;;;;;;6.10;4.57;;;;;;;-1.72;100.00;96938.97;7403406;19;20386;-91
2024/01/20 04:59:20;;;;;;;5.73;5.00;;;;;;;-2.18;100.00;96874.84;7402609;19;20743;-92
2024/01/20 05:02:05;;;;;;;7.70;5.97;;;;;;;-1.35;100.00;96998.38;7402851;19;20384;-91
2024/01/20 05:04:49;;;;;;;6.60;5.00;;;;;;;-1.53;100.00;96986.97;7402689;19;20368;-91
2024/01/20 05:07:32;;;;;;;4.47;4.13;;;;;;;-1.35;100.00;97016.41;7402432;19;20364;-92
2024/01/20 05:10:16;;;;;;;13.53;5.57;;;;;;;-1.39;100.00;97016.00;7402080;19;20377;-91
2024/01/20 05:13:00;;;;;;;8.07;5.27;;;;;;;-1.46;100.00;97013.50;7401523;19;20400;-91
2024/01/20 05:15:43;;;;;;;8.77;6.40;;;;;;;-1.46;100.00;97018.66;7402440;19;20388;-91
2024/01/20 05:18:27;;;;;;;7.03;5.83;;;;;;;-1.50;100.00;97025.19;7402202;19;20391;-90
2024/01/20 05:21:14;;;;;;;13.43;5.80;;;;;;;-1.48;100.00;97028.34;7399671;19;20517;-92
2024/01/20 05:23:57;;;;;;;6.63;4.63;;;;;;;-1.71;100.00;96993.78;7400128;19;20778;-90
2024/01/20 05:26:41;;;;;;;7.37;5.37;;;;;;;-1.57;100.00;97045.00;7401608;19;20443;-90
2024/01/20 05:29:24;;;;;;;8.37;5.90;;;;;;;-1.60;100.00;97045.41;7399987;19;20373;-91
2024/01/20 05:32:08;;;;;;;6.53;4.43;;;;;;;-1.62;100.00;97049.19;7401557;19;20365;-90
2024/01/20 05:34:51;;;;;;;8.00;5.03;;;;;;;-1.52;100.00;97055.47;7401623;19;20648;-90
2024/01/20 05:37:35;;;;;;;5.77;5.10;;;;;;;-1.43;100.00;97052.69;7401752;19;20365;-92
2024/01/20 05:40:19;;;;;;;5.23;4.73;;;;;;;-1.58;100.00;97029.78;7401099;19;20361;-90
2024/01/20 05:43:04;;;;;;;8.63;5.10;;;;;;;-1.47;100.00;97053.09;7400614;19;20408;-91
2024/01/20 05:45:48;;;;;;;5.30;4.27;;;;;;;-1.48;100.00;97054.09;7401089;19;20356;-91
2024/01/20 05:48:32;;;;;;;6.67;5.20;;;;;;;-1.55;100.00;97030.16;7400417;19;20380;-91
2024/01/20 05:51:16;;;;;;;8.60;5.70;;;;;;;-1.39;100.00;97056.41;7401082;19;20369;-91
2024/01/20 05:54:03;;;;;;;5.47;4.97;;;;;;;-1.37;100.00;97054.44;7399345;19;20401;-91
2024/01/20 05:56:47;;;;;;;7.53;5.17;;;;;;;-1.64;100.00;97057.13;7400062;19;20373;-90
2024/01/20 05:59:31;;;;;;;50.03;31.00;;;;;;;-1.67;100.00;97023.25;7400521;19;20369;-91
2024/01/20 06:02:14;;;;;;;18.30;12.27;;;;;;;-2.04;100.00;96961.25;7400584;19;20381;-92
2024/01/20 06:04:58;;;;;;;28.20;16.67;;;;;;;-1.32;100.00;97065.69;7400880;19;20392;-92
2024/01/20 06:07:41;;;;;;;51.73;31.43;;;;;;;-1.34;100.00;97072.03;7400172;19;20364;-91
2024/01/20 06:10:26;;;;;;;11.57;9.93;;;;;;;-1.26;100.00;97076.94;7400233;19;20830;-90
2024/01/20 06:13:10;;;;;;;8.50;6.30;;;;;;;-1.30;100.00;97086.88;7399211;19;20400;-93
2024/01/20 06:15:53;;;;;;;10.27;9.47;;;;;;;-1.31;100.00;97080.13;7399876;19;20372;-91
2024/01/20 06:18:37;;;;;;;9.57;8.30;;;;;;;-1.40;100.00;97073.66;7400113;19;20377;-91
2024/01/20 06:21:21;;;;;;;9.47;8.60;;;;;;;-1.36;100.00;97092.06;7398088;19;20415;-92
2024/01/20 06:24:06;;;;;;;9.40;7.47;;;;;;;-1.40;100.00;97098.59;7398792;19;20392;-92
2024/01/20 06:26:49;;;;;;;7.87;6.90;;;;;;;-1.36;100.00;97098.00;7399524;19;20363;-92
2024/01/20 06:29:33;;;;;;;8.53;7.73;;;;;;;-1.44;100.00;97105.94;7398620;19;20380;-93
2024/01/20 06:32:17;;;;;;;10.00;4.83;;;;;;;-1.54;100.00;97105.56;7399757;19;20371;-93
2024/01/20 06:35:00;;;;;;;8.07;7.27;;;;;;;-1.91;100.00;97051.25;7399415;19;20885;-92
2024/01/20 06:37:44;;;;;;;9.53;7.20;;;;;;;-1.58;100.00;97115.50;7399380;19;20361;-91
2024/01/20 06:40:27;;;;;;;9.00;6.37;;;;;;;-1.63;100.00;97112.72;7399108;19;20398;-93
2024/01/20 06:43:11;;;;;;;11.43;7.47;;;;;;;-1.66;100.00;97114.91;7398097;19;20396;-91
2024/01/20 06:45:54;;;;;;;7.03;5.37;;;;;;;-1.64;100.00;97120.63;7399199;19;20361;-91
2024/01/20 06:48:38;;;;;;;10.70;6.60;;;;;;;-1.67;100.00;97121.81;7398235;19;20374;-91
2024/01/20 06:51:22;;;;;;;3.40;3.10;;;;;;;-1.68;100.00;97122.81;7399349;19;20361;-92
2024/01/20 06:54:07;;;;;;;7.03;5.50;;;;;;;-1.72;100.00;97124.22;7397536;19;20400;-92
2024/01/20 06:56:51;;;;;;;6.90;4.90;;;;;;;-1.71;100.00;97110.34;7399284;19;20381;-93
2024/01/20 06:59:37;;;;;;;8.70;4.87;;;;;;;-1.70;100.00;97117.09;7400171;19;20360;-92
2024/01/20 07:02:20;;;;;;;11.33;7.63;;;;;;;-1.63;100.00;97115.31;7398714;19;20420;-92
2024/01/20 07:05:05;;;;;;;9.80;8.80;;;;;;;-1.55;100.00;97119.44;7398978;19;20364;-93
2024/01/20 07:07:49;;;;;;;12.23;9.40;;;;;;;-1.51;100.00;97113.69;7396091;19;20381;-90
2024/01/20 07:10:33;;;;;;;13.67;10.27;;;;;;;-1.53;100.00;97112.28;7398544;19;20364;-91
2024/01/20 07:13:16;;;;;;;20.20;13.60;;;;;;;-1.60;100.00;97121.81;7397518;19;20400;-91
2024/01/20 07:16:00;;;;;;;8.07;7.37;;;;;;;-1.72;100.00;97123.44;7398466;19;20380;-91
2024/01/20 07:18:43;;;;;;;14.73;8.67;;;;;;;-1.64;100.00;97133.50;7398251;19;20872;-90
2024/01/20 07:21:27;;;;;;;10.30;8.70;;;;;;;-1.66;100.00;97143.19;7396377;19;20404;-91
2024/01/20 07:24:11;;;;;;;8.10;6.10;;;;;;;-1.73;100.00;97145.00;7396464;19;20416;-90
2024/01/20 07:26:55;;;;;;;9.40;7.63;;;;;;;-1.73;100.00;97140.66;7398170;19;20392;-89
2024/01/20 07:29:39;;;;;;;11.87;9.50;;;;;;;-1.75;100.00;97145.22;7396509;19;20376;-90
2024/01/20 07:32:22;;;;;;;10.93;8.27;;;;;;;-1.67;100.00;97154.47;7397881;19;20719;-90
2024/01/20 07:35:09;;;;;;;12.20;7.63;;;;;;;-1.69;100.00;97141.81;7398374;19;20377;-90
2024/01/20 07:37:53;;;;;;;8.03;7.23;;;;;;;-1.53;100.00;97156.84;7397901;19;20371;-90
2024/01/20 07:40:36;;;;;;;11.50;8.43;;;;;;;-1.68;100.00;97165.78;7398034;19;20375;-93
2024/01/20 07:43:21;;;;;;;10.57;7.90;;;;;;;-1.72;100.00;97165.38;7396731;19;20735;-93
2024/01/20 07:46:05;;;;;;;14.33;9.23;;;;;;;-1.70;100.00;97167.75;7397462;19;20397;-93
2024/01/20 07:48:48;;;;;;;25.23;16.83;;;;;;;-1.56;100.00;97166.75;7396891;19;20384;-90
2024/01/20 07:51:32;;;;;;;11.50;9.70;;;;;;;-1.51;100.00;97167.75;7397337;19;20375;-90
2024/01/20 07:54:16;;;;;;;16.23;13.87;;;;;;;-1.54;100.00;97168.13;7395746;19;20420;-90
2024/01/20 07:56:59;;;;;;;13.80;10.43;;;;;;;-1.62;100.00;97160.63;7397773;19;20393;-90
2024/01/20 07:59:43;;;;;;;13.47;10.53;;;;;;;-1.75;100.00;97142.63;7397168;19;20365;-90
2024/01/20 08:02:27;;;;;;;40.07;24.83;;;;;;;-1.42;100.00;97182.97;7397521;19;20488;-90
2024/01/20 08:05:11;;;;;;;20.80;13.77;;;;;;;-1.34;100.00;97193.03;7397322;19;20360;-89
2024/01/20 08:07:54;;;;;;;105.77;52.37;;;;;;;-1.51;100.00;97146.34;7396907;19;20371;-90
2024/01/20 08:10:38;;;;;;;51.63;29.83;;;;;;;-1.51;100.00;97144.59;7396875;19;20361;-90
2024/01/20 08:13:21;;;;;;;15.67;9.97;;;;;;;-1.29;100.00;97188.84;7395964;19;20392;-90
2024/01/20 08:16:07;;;;;;;37.10;22.47;;;;;;;-1.12;100.00;97165.25;7396693;19;20376;-93
2024/01/20 08:18:51;;;;;;;48.67;26.47;;;;;;;-0.99;100.00;97206.41;7399541;19;20360;-90
2024/01/20 08:21:35;;;;;;;26.27;12.63;;;;;;;-1.12;100.00;97204.66;7401088;19;20415;-92
2024/01/20 08:24:18;;;;;;;20.60;11.90;;;;;;;-1.07;100.00;97198.94;7400827;19;20408;-92
2024/01/20 08:27:02;;;;;;;29.77;17.00;;;;;;;-1.28;100.00;97205.09;7403678;19;20360;-92
2024/01/20 08:29:46;;;;;;;33.83;19.13;;;;;;;-1.25;100.00;97202.91;7402040;19;20395;-92
2024/01/20 08:32:29;;;;;;;15.70;11.50;;;;;;;-1.29;100.00;97196.56;7402848;19;20408;-90
2024/01/20 08:35:13;;;;;;;32.73;17.47;;;;;;;-1.33;100.00;97208.28;7403599;19;20361;-91
2024/01/20 08:37:56;;;;;;;12.73;10.43;;;;;;;-1.25;100.00;97202.91;7403695;19;20694;-91
2024/01/20 08:40:40;;;;;;;23.50;13.37;;;;;;;-1.30;100.00;97207.88;7403671;19;20369;-92
2024/01/20 08:43:23;;;;;;;48.80;28.40;;;;;;;-1.79;100.00;97149.16;7402489;19;20408;-91
2024/01/20 08:46:07;;;;;;;33.27;22.77;;;;;;;-1.22;100.00;97212.81;7403470;19;20364;-91
2024/01/20 08:48:50;;;;;;;21.80;12.83;;;;;;;-2.75;100.00;96949.09;7401997;19;20379;-91
2024/01/20 08:51:34;;;;;;;29.83;17.67;;;;;;;-1.09;100.00;97212.00;7403437;19;20372;-92
2024/01/20 08:54:17;;;;;;;12.70;9.40;;;;;;;-1.00;100.00;97213.34;7401066;19;20423;-91
2024/01/20 08:57:01;;;;;;;16.10;11.70;;;;;;;-0.83;100.00;97216.31;7402796;19;20364;-91
2024/01/20 08:59:44;;;;;;;16.67;10.60;;;;;;;-0.99;100.00;97211.56;7402672;19;20379;-91
2024/01/20 09:02:28;;;;;;;22.00;12.23;;;;;;;-0.94;100.00;97198.88;7403014;19;20416;-90
2024/01/20 09:05:12;;;;;;;12.47;9.30;;;;;;;-0.90;100.00;97223.25;7402688;19;20676;-90
2024/01/20 09:07:55;;;;;;;33.20;18.10;;;;;;;-0.92;100.00;97231.19;7402828;19;20365;-91
2024/01/20 09:10:39;;;;;;;12.43;8.50;;;;;;;-0.84;100.00;97230.19;7402346;19;20373;-91
2024/01/20 09:13:23;;;;;;;10.87;8.30;;;;;;;-0.86;100.00;97235.50;7400865;19;20473;-90
2024/01/20 09:16:07;;;;;;;11.57;9.67;;;;;;;-0.66;100.00;97232.88;7402309;19;20364;-93
2024/01/20 09:18:51;;;;;;;12.27;9.03;;;;;;;-0.80;100.00;97200.44;7401983;19;20377;-90
2024/01/20 09:21:35;;;;;;;11.67;8.97;;;;;;;-0.67;100.00;97249.34;7399786;19;20393;-90
2024/01/20 09:24:19;;;;;;;13.90;9.93;;;;;;;-0.71;100.00;97248.19;7399426;19;20404;-90
2024/01/20 09:27:02;;;;;;;11.80;10.00;;;;;;;-1.01;100.00;97195.53;7402214;19;20360;-90
2024/01/20 09:29:46;;;;;;;12.73;9.13;;;;;;;-0.71;100.00;97249.94;7398112;19;20856;-92
2024/01/20 09:32:33;;;;;;;11.77;9.70;;;;;;;-0.67;100.00;97248.56;7401226;19;20417;-91
2024/01/20 09:35:16;;;;;;;11.57;8.83;;;;;;;-0.81;100.00;97252.16;7401391;19;20845;-93
2024/01/20 09:38:00;;;;;;;14.00;10.43;;;;;;;-2.40;100.00;96997.69;7401950;19;20369;-90
2024/01/20 09:40:43;;;;;;;8.87;7.97;;;;;;;-0.79;100.00;97242.44;7401351;19;20925;-90
2024/01/20 09:43:28;;;;;;;14.90;9.10;;;;;;;-0.69;100.00;97269.38;7399912;19;20486;-90
2024/01/20 09:46:12;;;;;;;13.77;10.13;;;;;;;-0.51;100.00;97265.34;7401596;19;20745;-90
2024/01/20 09:48:56;;;;;;;18.50;9.60;;;;;;;-0.63;100.00;97260.03;7400008;19;20376;-90
2024/01/20 09:51:51;;;;;;;12.57;9.50;;;;;;;-1.11;100.00;97216.53;7401210;19;20440;-91
2024/01/20 09:54:41;;;;;;;13.87;10.37;;;;;;;-0.85;100.00;97242.25;7400616;19;20372;-90
2024/01/20 09:57:25;;;;;;;14.50;9.43;;;;;;;-0.74;100.00;97273.53;7401048;19;20372;-89
2024/01/20 10:00:13;;;;;;;13.50;10.23;;;;;;;-0.79;100.00;97260.47;7400873;19;20877;-90
2024/01/20 10:03:05;;;;;;;10.17;8.83;;;;;;;-0.66;100.00;97274.13;7399927;19;20405;-90
2024/01/20 10:05:51;;;;;;;14.07;9.43;;;;;;;-0.64;100.00;97269.56;7400992;19;20353;-93
2024/01/20 10:08:35;;;;;;;14.93;11.50;;;;;;;-0.67;100.00;97272.53;7400074;19;20388;-90
2024/01/20 10:11:18;;;;;;;16.27;10.77;;;;;;;-0.48;100.00;97277.84;7400170;19;20898;-93
2024/01/20 10:14:03;;;;;;;10.97;9.10;;;;;;;-0.83;100.00;97220.66;7398821;19;20408;-90
2024/01/20 10:16:46;;;;;;;12.03;9.47;;;;;;;-0.46;100.00;97270.69;7400268;19;20368;-89
2024/01/20 10:19:30;;;;;;;15.00;9.47;;;;;;;-0.37;100.00;97272.03;7400117;19;20369;-90
2024/01/20 10:22:14;;;;;;;14.27;9.97;;;;;;;-0.40;100.00;97272.47;7400162;19;20373;-91
2024/01/20 10:24:57;;;;;;;14.70;9.67;;;;;;;-0.09;100.00;97275.09;7399811;19;20383;-92
2024/01/20 10:28:13;;;;;;;;;;;;;;;;;;;;;
2024/01/20 10:31:09;;;;;;;12.63;9.60;;;;;;;0.19;100.00;97272.16;7398777;19;20380;-90
2024/01/20 10:33:53;;;;;;;13.97;10.27;;;;;;;-0.80;100.00;97107.66;7397294;19;20416;-89
2024/01/20 10:36:40;;;;;;;11.37;9.80;;;;;;;0.39;100.00;97277.19;7399287;19;20369;-88
2024/01/20 10:39:25;;;;;;;15.20;10.70;;;;;;;-0.54;100.00;97100.78;7398737;19;20364;-90
2024/01/20 10:42:14;;;;;;;13.90;9.93;;;;;;;0.22;100.00;97271.72;7398037;19;20383;-89
2024/01/20 10:45:05;;;;;;;21.33;10.47;;;;;;;0.21;100.00;97266.78;7403948;19;20412;-92
2024/01/20 10:48:16;;;;;;;22.63;11.37;;;;;;;0.14;100.00;97274.56;7399570;19;20718;-92
2024/01/20 10:51:01;;;;;;;14.73;10.57;;;;;;;-0.73;100.00;97154.00;7399289;19;20392;-92
2024/01/20 10:53:47;;;;;;;18.57;11.20;;;;;;;-0.92;100.00;97089.50;7397872;19;20404;-92
2024/01/20 10:56:32;;;;;;;14.97;10.20;;;;;;;-1.06;100.00;97093.13;7398681;19;20371;-90
2024/01/20 10:59:19;;;;;;;43.17;26.83;;;;;;;0.09;100.00;97250.38;7399073;19;20381;-92
2024/01/20 11:02:04;;;;;;;11.67;7.60;;;;;;;0.10;100.00;97254.56;7398432;19;20365;-93
2024/01/20 11:04:48;;;;;;;14.50;10.80;;;;;;;-0.11;100.00;97222.91;7398573;19;20360;-92
2024/01/20 11:07:37;;;;;;;11.13;8.33;;;;;;;0.17;100.00;97244.97;7398854;19;20428;-91
2024/01/20 11:10:23;;;;;;;11.53;9.70;;;;;;;-0.58;100.00;97100.38;7396551;19;20380;-91
2024/01/20 11:13:27;;;;;;;11.87;7.10;;;;;;;-0.60;100.00;97089.50;7397238;19;20396;-91
2024/01/20 11:16:21;;;;;;;12.00;9.73;;;;;;;-0.59;100.00;97076.41;7398261;19;20365;-92
2024/01/20 11:19:08;;;;;;;13.07;10.47;;;;;;;0.71;100.00;97231.44;7398005;19;20373;-91
2024/01/20 11:21:52;;;;;;;14.70;10.30;;;;;;;-1.16;100.00;96949.34;7398374;19;20372;-91
2024/01/20 11:24:58;;;;;;;10.80;9.40;;;;;;;-0.53;100.00;97043.06;7398148;19;20371;-91
2024/01/20 11:27:48;;;;;;;9.43;7.80;;;;;;;-0.15;100.00;97086.84;7398155;19;20381;-90
2024/01/20 11:30:35;;;;;;;12.83;9.87;;;;;;;1.08;100.00;97257.34;7398090;19;20396;-90
2024/01/20 11:33:19;;;;;;;11.10;8.57;;;;;;;1.12;100.00;97237.81;7396859;19;20464;-92
2024/01/20 11:36:03;;;;;;;11.43;8.37;;;;;;;0.30;100.00;97088.22;7397463;19;20364;-91
2024/01/20 11:38:47;;;;;;;7.90;7.07;;;;;;;0.44;100.00;97134.56;7397428;19;20384;-92
2024/01/20 11:41:31;;;;;;;11.47;9.33;;;;;;;0.58;100.00;97146.34;7397467;19;20372;-91
2024/01/20 11:44:20;;;;;;;9.80;7.63;;;;;;;0.41;100.00;97080.78;7395338;19;20478;-91
2024/01/20 11:47:05;;;;;;;12.57;8.93;;;;;;;0.34;100.00;97091.16;7397303;19;20449;-92
2024/01/20 11:49:49;;;;;;;10.33;9.17;;;;;;;0.49;100.00;97099.34;7395739;19;20379;-91
2024/01/20 11:52:32;;;;;;;11.77;8.50;;;;;;;0.63;100.00;97115.50;7397261;19;20420;-92
2024/01/20 11:55:17;;;;;;;11.43;10.10;;;;;;;0.63;100.00;97095.63;7404792;19;20701;-91
2024/01/20 11:58:01;;;;;;;14.73;8.50;;;;;;;1.34;100.00;97204.56;7404928;19;20757;-92
2024/01/20 12:00:44;;;;;;;11.73;8.70;;;;;;;1.17;100.00;97174.16;7405184;19;20924;-92
2024/01/20 12:03:28;;;;;;;10.40;9.00;;;;;;;1.06;100.00;97166.31;7403555;19;20415;-91
2024/01/20 12:06:14;;;;;;;12.50;10.33;;;;;;;1.60;100.00;97239.69;7404286;19;20810;-91
2024/01/20 12:08:57;;;;;;;10.90;7.77;;;;;;;0.01;100.00;96962.44;7402975;19;20384;-91
2024/01/20 12:11:41;;;;;;;12.23;9.57;;;;;;;1.47;100.00;97184.53;7404132;19;20389;-91
2024/01/20 12:14:25;;;;;;;13.30;8.67;;;;;;;0.03;100.00;96948.34;7401343;19;20475;-91
2024/01/20 12:17:10;;;;;;;14.87;10.10;;;;;;;1.27;100.00;97134.84;7404257;19;20759;-92
2024/01/20 12:19:55;;;;;;;12.50;9.50;;;;;;;1.07;100.00;97087.78;7403075;19;20408;-91
2024/01/20 12:22:38;;;;;;;8.83;6.53;;;;;;;2.25;100.00;97222.47;7403400;19;20400;-91
2024/01/20 12:25:23;;;;;;;8.20;7.33;;;;;;;2.39;100.00;97236.81;7403631;19;20450;-91
2024/01/20 12:28:07;;;;;;;12.20;8.03;;;;;;;1.35;100.00;97082.03;7403494;19;20400;-91
2024/01/20 12:30:51;;;;;;;8.50;7.47;;;;;;;1.66;100.00;97159.38;7403644;19;20388;-91
2024/01/20 12:33:34;;;;;;;13.17;8.30;;;;;;;0.72;100.00;96992.00;7401766;19;20441;-91
2024/01/20 12:36:18;;;;;;;7.80;7.00;;;;;;;2.07;100.00;97220.72;7403399;19;20361;-91
2024/01/20 12:39:02;;;;;;;9.73;7.90;;;;;;;1.52;100.00;97126.94;7403644;19;20381;-91
2024/01/20 12:41:45;;;;;;;10.67;7.37;;;;;;;1.11;100.00;97057.88;7403659;19;20857;-91